Time;durP1;ratioP1;P1;durP2;ratioP2;P2;SDS_P1;SDS_P2;PMS_P1;PMS_P2;Temp;Humidity;BMP_temperature;BMP_pressure;BME280_temperature;BME280_humidity;BME280_pressure;Samples;Min_cycle;Max_cycle;Signal;HPM_P1;HPM_P2
2022/12/15 00:38:43;;;;;;;36.40;15.43;;;;;;;;;;10364891;28;20944;-61
2022/12/15 00:43:43;;;;;;;38.73;16.97;;;;;;;;;;10363789;28;20211;-62
2022/12/15 00:48:43;;;;;;;38.43;18.83;;;;;;;;;;10362711;28;20227;-62
2022/12/15 01:20:17;;;;;;;40.90;16.80;;;;;;;;;;10371566;28;20188;-61
2022/12/15 01:25:18;;;;;;;36.60;17.13;;;;;;;;;;10370990;28;20252;-63
2022/12/15 01:30:20;;;;;;;32.03;14.80;;;;;;;;;;10370800;28;20188;-64
2022/12/15 01:35:20;;;;;;;35.07;15.03;;;;;;;;;;10370939;28;20205;-64
2022/12/15 01:45:45;;;;;;;32.20;14.80;;;;;;;;;;10369541;28;20290;-64
2022/12/15 01:51:04;;;;;;;31.80;13.40;;;;;;;;;;10369922;28;20251;-64
2022/12/15 01:56:05;;;;;;;28.60;14.27;;;;;;;;;;10369187;28;20181;-63
2022/12/15 02:01:05;;;;;;;33.27;15.57;;;;;;;;;;10368311;28;20212;-62
2022/12/15 02:06:06;;;;;;;27.80;12.67;;;;;;;;;;10368090;28;20229;-64
2022/12/15 02:11:25;;;;;;;24.83;12.00;;;;;;;;;;10369214;28;20189;-61
2022/12/15 02:16:40;;;;;;;28.37;13.70;;;;;;;;;;10368846;28;20193;-62
2022/12/15 02:21:43;;;;;;;31.60;15.03;;;;;;;;;;10368408;28;20312;-62
2022/12/15 02:26:55;;;;;;;32.07;14.70;;;;;;;;;;10366992;28;21041;-62
2022/12/15 02:32:02;;;;;;;28.57;12.00;;;;;;;;;;10368136;28;20262;-62
2022/12/15 02:37:22;;;;;;;30.57;13.00;;;;;;;;;;10366664;28;20690;-62
2022/12/15 02:42:23;;;;;;;31.87;13.70;;;;;;;;;;10367244;28;20307;-62
2022/12/15 02:47:53;;;;;;;28.43;13.20;;;;;;;;;;10367032;28;20963;-62
2022/12/15 02:53:10;;;;;;;26.03;12.43;;;;;;;;;;10279344;28;20220;-61
2022/12/15 02:58:22;;;;;;;32.50;13.97;;;;;;;;;;10367110;28;20247;-62
2022/12/15 03:03:23;;;;;;;32.13;14.67;;;;;;;;;;10366537;28;20276;-62
2022/12/15 03:08:24;;;;;;;29.23;13.93;;;;;;;;;;10364573;28;20213;-62
2022/12/15 03:13:24;;;;;;;33.40;14.87;;;;;;;;;;10367431;28;20194;-62
2022/12/15 03:18:24;;;;;;;32.58;15.65;;;;;;;;;;10366577;28;20196;-61
2022/12/15 03:23:24;;;;;;;33.87;15.93;;;;;;;;;;10366031;28;20226;-61
2022/12/15 03:28:25;;;;;;;24.70;9.45;;;;;;;;;;10366418;28;20467;-62
2022/12/15 03:33:25;;;;;;;22.93;10.73;;;;;;;;;;10366193;28;20578;-63
2022/12/15 03:38:25;;;;;;;26.60;13.02;;;;;;;;;;10365653;28;20437;-64
2022/12/15 03:43:25;;;;;;;16.95;7.65;;;;;;;;;;10366089;28;20214;-64
2022/12/15 03:48:26;;;;;;;22.85;9.32;;;;;;;;;;10364860;28;20247;-63
2022/12/15 03:53:26;;;;;;;22.33;11.55;;;;;;;;;;10365095;28;20221;-63
2022/12/15 03:58:26;;;;;;;14.73;8.27;;;;;;;;;;10365583;28;20557;-63
2022/12/15 04:03:26;;;;;;;13.83;7.47;;;;;;;;;;10362656;28;20256;-65
2022/12/15 04:08:27;;;;;;;19.77;9.03;;;;;;;;;;10358854;28;20505;-65
2022/12/15 04:13:27;;;;;;;18.80;9.80;;;;;;;;;;10356988;28;20653;-63
2022/12/15 04:18:27;;;;;;;20.70;10.07;;;;;;;;;;10357968;28;20523;-62
2022/12/15 04:23:28;;;;;;;18.83;8.47;;;;;;;;;;10357977;28;20468;-63
2022/12/15 05:32:16;;;;;;;18.13;9.00;;;;;;;;;;10364412;28;20581;-64
2022/12/15 05:37:16;;;;;;;20.80;9.23;;;;;;;;;;10363733;28;20186;-63
2022/12/15 05:42:16;;;;;;;16.87;9.33;;;;;;;;;;10369015;28;20455;-63
2022/12/15 05:47:17;;;;;;;18.55;8.35;;;;;;;;;;10364614;28;20224;-64
2022/12/15 05:52:17;;;;;;;19.60;8.40;;;;;;;;;;10370400;28;20300;-64
2022/12/15 05:57:17;;;;;;;19.37;9.53;;;;;;;;;;10371322;28;20424;-63
2022/12/15 06:02:17;;;;;;;21.83;9.95;;;;;;;;;;10370628;28;20818;-63
2022/12/15 06:07:18;;;;;;;16.50;7.77;;;;;;;;;;10370402;28;20600;-63
2022/12/15 06:12:18;;;;;;;15.90;7.40;;;;;;;;;;10371143;28;20228;-63
2022/12/15 06:17:18;;;;;;;15.90;8.23;;;;;;;;;;10370311;28;20643;-63
2022/12/15 06:22:18;;;;;;;15.60;7.60;;;;;;;;;;10370674;28;20309;-63
2022/12/15 06:27:19;;;;;;;10.97;4.53;;;;;;;;;;10370518;28;20244;-62
2022/12/15 06:32:20;;;;;;;16.53;8.43;;;;;;;;;;10369845;28;20296;-63
2022/12/15 06:37:20;;;;;;;12.90;7.13;;;;;;;;;;10369989;28;20878;-63
2022/12/15 06:42:20;;;;;;;12.63;7.07;;;;;;;;;;10369478;28;20220;-64
2022/12/15 06:47:20;;;;;;;14.07;7.07;;;;;;;;;;10368692;28;20534;-63
2022/12/15 06:52:21;;;;;;;8.50;4.43;;;;;;;;;;10369044;28;20198;-64
2022/12/15 06:57:21;;;;;;;23.77;13.98;;;;;;;;;;10335599;28;20289;-64
2022/12/15 07:02:21;;;;;;;47.03;29.63;;;;;;;;;;10328035;28;20248;-64
2022/12/15 07:07:21;;;;;;;11.33;5.40;;;;;;;;;;10359166;28;20501;-64
2022/12/15 07:12:22;;;;;;;9.60;5.47;;;;;;;;;;10368861;28;20665;-63
2022/12/15 07:17:23;;;;;;;10.70;5.87;;;;;;;;;;10367485;28;20228;-63
2022/12/15 07:22:23;;;;;;;9.73;5.50;;;;;;;;;;10368167;28;20639;-63
2022/12/15 07:27:23;;;;;;;13.37;7.37;;;;;;;;;;10367731;28;20225;-63
2022/12/15 07:32:23;;;;;;;13.13;7.30;;;;;;;;;;10381547;28;20241;-63
2022/12/15 07:37:23;;;;;;;9.23;6.07;;;;;;;;;;10382761;28;20208;-62
2022/12/15 07:42:24;;;;;;;13.73;6.13;;;;;;;;;;10374253;28;20467;-64
2022/12/15 07:47:24;;;;;;;205.73;58.57;;;;;;;;;;10367611;28;20213;-63
2022/12/15 07:52:24;;;;;;;149.63;52.47;;;;;;;;;;10367843;28;20213;-63
2022/12/15 07:57:25;;;;;;;100.43;37.20;;;;;;;;;;10350716;28;20197;-64
2022/12/15 08:02:25;;;;;;;252.97;94.43;;;;;;;;;;10361932;28;20242;-64
2022/12/15 08:07:25;;;;;;;36.63;16.43;;;;;;;;;;10345964;28;20622;-64
2022/12/15 08:12:30;;;;;;;21.83;12.47;;;;;;;;;;10361498;28;20201;-62
2022/12/15 08:17:30;;;;;;;14.40;8.63;;;;;;;;;;10363160;28;20332;-62
2022/12/15 08:22:30;;;;;;;13.03;6.70;;;;;;;;;;10363998;28;20213;-62
2022/12/15 08:27:30;;;;;;;9.17;4.57;;;;;;;;;;10362028;28;20225;-62
2022/12/15 08:32:31;;;;;;;14.25;6.32;;;;;;;;;;10361172;28;20205;-63
2022/12/15 08:37:31;;;;;;;17.53;7.80;;;;;;;;;;10360673;28;20198;-62
2022/12/15 08:42:32;;;;;;;10.57;6.50;;;;;;;;;;10360727;28;20607;-64
2022/12/15 08:47:33;;;;;;;13.27;6.70;;;;;;;;;;10361519;28;20713;-66
2022/12/15 08:52:33;;;;;;;15.03;7.93;;;;;;;;;;10363528;28;20717;-64
2022/12/15 08:57:33;;;;;;;15.10;7.50;;;;;;;;;;10361525;28;20193;-65
2022/12/15 09:02:34;;;;;;;12.30;5.40;;;;;;;;;;10349956;28;20242;-65
2022/12/15 09:07:34;;;;;;;13.67;7.00;;;;;;;;;;10344105;28;20476;-63
2022/12/15 09:12:34;;;;;;;19.17;9.93;;;;;;;;;;10361927;28;20204;-64
2022/12/15 09:17:34;;;;;;;21.80;10.60;;;;;;;;;;10367043;28;20203;-65
2022/12/15 09:22:38;;;;;;;13.13;7.37;;;;;;;;;;10369539;28;20440;-66
2022/12/15 09:27:38;;;;;;;13.20;7.53;;;;;;;;;;10368564;28;20225;-64
2022/12/15 09:32:38;;;;;;;11.00;7.20;;;;;;;;;;10367829;28;20201;-63
2022/12/15 09:37:38;;;;;;;11.93;6.33;;;;;;;;;;10368443;28;20594;-65
2022/12/15 09:42:39;;;;;;;9.60;5.25;;;;;;;;;;10368670;28;20469;-64
2022/12/15 09:47:42;;;;;;;12.17;6.50;;;;;;;;;;10366667;28;20217;-64
2022/12/15 09:52:48;;;;;;;10.03;5.63;;;;;;;;;;10367748;28;20229;-65
2022/12/15 09:57:49;;;;;;;12.57;6.90;;;;;;;;;;10367890;28;20197;-63
2022/12/15 10:03:00;;;;;;;9.60;6.53;;;;;;;;;;10367157;28;20239;-64
2022/12/15 10:08:01;;;;;;;8.13;4.70;;;;;;;;;;10367238;28;20566;-64
2022/12/15 10:13:03;;;;;;;10.93;6.50;;;;;;;;;;10367572;28;20243;-64
2022/12/15 10:18:08;;;;;;;6.37;4.30;;;;;;;;;;10364059;28;20196;-63
2022/12/15 10:23:13;;;;;;;5.37;3.80;;;;;;;;;;10366542;28;20980;-64
2022/12/15 10:28:27;;;;;;;7.87;4.03;;;;;;;;;;10367278;28;20774;-63
2022/12/15 10:33:36;;;;;;;4.90;3.70;;;;;;;;;;10364354;28;20209;-63
2022/12/15 10:38:41;;;;;;;4.17;3.03;;;;;;;;;;10362694;28;20193;-64
2022/12/15 10:43:44;;;;;;;6.47;3.70;;;;;;;;;;10367167;28;20259;-62
2022/12/15 10:48:46;;;;;;;5.53;3.60;;;;;;;;;;10364445;28;20256;-60
2022/12/15 10:53:48;;;;;;;5.23;3.37;;;;;;;;;;10362697;28;20590;-62
2022/12/15 10:58:50;;;;;;;4.33;2.90;;;;;;;;;;10365868;28;20190;-63
2022/12/15 11:03:51;;;;;;;5.50;3.50;;;;;;;;;;10365388;28;20248;-62
2022/12/15 11:08:52;;;;;;;4.20;2.70;;;;;;;;;;10363970;28;20220;-60
2022/12/15 11:14:03;;;;;;;3.47;2.60;;;;;;;;;;10400431;22;20230;-61
2022/12/15 11:19:08;;;;;;;4.00;2.73;;;;;;;;;;10410209;28;20719;-62
2022/12/15 11:24:21;;;;;;;4.53;2.83;;;;;;;;;;10418732;28;20223;-60
2022/12/15 11:29:43;;;;;;;5.13;3.43;;;;;;;;;;10445468;28;20225;-62
2022/12/15 11:34:44;;;;;;;4.13;3.00;;;;;;;;;;10444578;28;20697;-61
2022/12/15 11:39:50;;;;;;;4.73;3.00;;;;;;;;;;10445421;28;20556;-59
2022/12/15 11:45:03;;;;;;;5.03;2.83;;;;;;;;;;10445582;28;20230;-61
2022/12/15 11:50:08;;;;;;;3.53;2.80;;;;;;;;;;10444269;28;20180;-62
2022/12/15 11:55:12;;;;;;;5.23;3.40;;;;;;;;;;10443838;28;20281;-63
2022/12/15 12:00:12;;;;;;;4.97;2.87;;;;;;;;;;10443507;28;20188;-63
2022/12/15 12:05:22;;;;;;;4.57;3.53;;;;;;;;;;10443154;28;20247;-62
2022/12/15 12:10:34;;;;;;;5.47;3.87;;;;;;;;;;10445248;28;20224;-66
2022/12/15 12:15:40;;;;;;;6.33;4.50;;;;;;;;;;10444019;28;20236;-65
2022/12/15 12:20:52;;;;;;;5.20;3.60;;;;;;;;;;10444909;28;20186;-62
2022/12/15 12:26:05;;;;;;;5.10;3.35;;;;;;;;;;10445224;28;20390;-64
2022/12/15 12:31:14;;;;;;;8.20;4.43;;;;;;;;;;10443519;28;20207;-64
2022/12/15 12:36:15;;;;;;;5.50;3.60;;;;;;;;;;10443336;28;20223;-64
2022/12/15 12:41:22;;;;;;;4.93;4.33;;;;;;;;;;10445642;28;20191;-65
2022/12/15 12:46:25;;;;;;;4.80;3.90;;;;;;;;;;10443229;28;20366;-65
2022/12/15 12:51:32;;;;;;;8.77;5.17;;;;;;;;;;10448882;28;20184;-65
2022/12/15 12:56:41;;;;;;;7.17;5.20;;;;;;;;;;10452023;28;20254;-65
2022/12/15 13:01:41;;;;;;;5.85;4.50;;;;;;;;;;10450811;28;20204;-64
2022/12/15 13:06:41;;;;;;;8.55;5.75;;;;;;;;;;10451293;28;20226;-63
2022/12/15 13:11:47;;;;;;;10.83;5.90;;;;;;;;;;10452860;28;20237;-64
2022/12/15 13:16:50;;;;;;;9.47;6.07;;;;;;;;;;10450640;28;20606;-65
2022/12/15 13:21:52;;;;;;;15.90;11.43;;;;;;;;;;10451394;28;20279;-65
2022/12/15 13:27:02;;;;;;;13.17;6.27;;;;;;;;;;10450828;28;20220;-65
2022/12/15 13:32:02;;;;;;;21.70;7.10;;;;;;;;;;10448653;28;20271;-65
2022/12/15 13:37:04;;;;;;;13.70;5.77;;;;;;;;;;10447092;28;20211;-64
2022/12/15 13:42:05;;;;;;;9.20;5.40;;;;;;;;;;10448223;28;20180;-66
2022/12/15 13:47:05;;;;;;;7.70;5.00;;;;;;;;;;10448365;28;20215;-64
2022/12/15 13:52:16;;;;;;;19.23;6.73;;;;;;;;;;10448275;28;20792;-68
2022/12/15 13:57:18;;;;;;;9.77;6.30;;;;;;;;;;10443956;28;20302;-65
2022/12/15 14:02:24;;;;;;;13.60;6.50;;;;;;;;;;10445443;28;20278;-66
2022/12/15 14:07:24;;;;;;;14.27;7.63;;;;;;;;;;10444502;28;20696;-68
2022/12/15 14:12:24;;;;;;;14.17;7.60;;;;;;;;;;10447462;28;20275;-67
2022/12/15 14:17:25;;;;;;;23.07;8.07;;;;;;;;;;10448051;28;20489;-67
2022/12/15 14:22:27;;;;;;;44.47;20.83;;;;;;;;;;10446640;28;20475;-68
2022/12/15 14:27:29;;;;;;;19.40;9.60;;;;;;;;;;10447716;28;20227;-67
2022/12/15 14:32:29;;;;;;;23.57;10.30;;;;;;;;;;10448674;28;20195;-67
2022/12/15 14:37:30;;;;;;;16.97;8.23;;;;;;;;;;10446961;28;20222;-66
2022/12/15 14:42:30;;;;;;;15.77;8.73;;;;;;;;;;10448057;28;21031;-66
2022/12/15 14:47:32;;;;;;;12.13;6.97;;;;;;;;;;10448173;28;20767;-66
2022/12/15 14:52:34;;;;;;;14.23;7.63;;;;;;;;;;10447800;28;20714;-67
2022/12/15 14:57:40;;;;;;;11.63;5.87;;;;;;;;;;10444610;28;20213;-65
2022/12/15 15:02:40;;;;;;;14.63;6.47;;;;;;;;;;10446744;28;20199;-66
2022/12/15 15:07:40;;;;;;;14.77;8.13;;;;;;;;;;10445368;28;20223;-66
2022/12/15 15:12:43;;;;;;;17.67;9.40;;;;;;;;;;10445446;28;20186;-65
2022/12/15 15:17:51;;;;;;;11.97;7.60;;;;;;;;;;10447006;28;20692;-65
2022/12/15 15:23:06;;;;;;;40.23;15.27;;;;;;;;;;10445213;28;20203;-65
2022/12/15 15:28:16;;;;;;;25.17;11.07;;;;;;;;;;10441764;28;20258;-65
2022/12/15 15:33:17;;;;;;;12.50;6.63;;;;;;;;;;10442775;28;20197;-66
2022/12/15 15:38:17;;;;;;;11.73;6.40;;;;;;;;;;10446769;28;20646;-66
2022/12/15 15:43:18;;;;;;;6.27;3.93;;;;;;;;;;10443519;28;20246;-66
2022/12/15 15:48:22;;;;;;;9.50;5.80;;;;;;;;;;10425711;28;20311;-64
2022/12/15 15:53:23;;;;;;;15.07;6.03;;;;;;;;;;10405621;28;20193;-65
2022/12/15 15:58:24;;;;;;;7.73;4.63;;;;;;;;;;10403465;28;20217;-65
2022/12/15 16:03:24;;;;;;;8.13;4.60;;;;;;;;;;10404634;28;20654;-65
2022/12/15 16:08:26;;;;;;;5.97;3.03;;;;;;;;;;10404547;28;20254;-64
2022/12/15 16:13:27;;;;;;;19.47;7.93;;;;;;;;;;10423881;28;20195;-63
2022/12/15 16:18:27;;;;;;;5.00;2.77;;;;;;;;;;10443216;28;20236;-64
2022/12/15 16:23:28;;;;;;;19.97;12.37;;;;;;;;;;10442060;28;20556;-63
2022/12/15 16:28:29;;;;;;;9.63;5.57;;;;;;;;;;10441874;28;20223;-64
2022/12/15 16:33:29;;;;;;;8.70;4.30;;;;;;;;;;10441756;28;20211;-63
2022/12/15 16:38:30;;;;;;;12.90;6.77;;;;;;;;;;10444315;28;20283;-64
2022/12/15 16:43:30;;;;;;;10.23;5.10;;;;;;;;;;10442330;28;20442;-63
2022/12/15 16:48:30;;;;;;;11.33;4.47;;;;;;;;;;10443726;28;20227;-64
2022/12/15 16:53:32;;;;;;;11.43;6.23;;;;;;;;;;10445900;28;20494;-64
2022/12/15 16:58:33;;;;;;;8.10;3.10;;;;;;;;;;10442569;28;20348;-64
2022/12/15 17:03:33;;;;;;;7.27;4.07;;;;;;;;;;10444525;28;20622;-64
2022/12/15 17:08:41;;;;;;;11.83;6.47;;;;;;;;;;10443211;28;20276;-64
2022/12/15 17:13:43;;;;;;;12.57;6.00;;;;;;;;;;10443241;28;20434;-64
2022/12/15 17:18:44;;;;;;;10.53;5.00;;;;;;;;;;10440259;28;20196;-64
2022/12/15 17:23:46;;;;;;;16.37;9.97;;;;;;;;;;10444911;28;20200;-64
2022/12/15 17:28:46;;;;;;;13.53;7.57;;;;;;;;;;10437839;22;20786;-61
2022/12/15 17:33:47;;;;;;;8.43;5.20;;;;;;;;;;10363790;28;20181;-62
2022/12/15 17:38:50;;;;;;;12.70;5.77;;;;;;;;;;10370381;28;20236;-61
2022/12/15 17:43:50;;;;;;;7.37;4.03;;;;;;;;;;10370532;28;20193;-62
2022/12/15 17:48:50;;;;;;;7.90;4.40;;;;;;;;;;10369697;28;20602;-61
2022/12/15 17:53:50;;;;;;;5.10;2.87;;;;;;;;;;10370133;28;20436;-62
2022/12/15 17:58:51;;;;;;;5.63;3.63;;;;;;;;;;10386603;28;20212;-62
2022/12/15 18:03:51;;;;;;;7.17;3.90;;;;;;;;;;10411095;28;20926;-61
2022/12/15 18:08:51;;;;;;;9.77;4.50;;;;;;;;;;10409887;28;20483;-62
2022/12/15 18:13:51;;;;;;;8.03;4.10;;;;;;;;;;10410239;28;20192;-61
2022/12/15 18:18:52;;;;;;;13.87;5.40;;;;;;;;;;10410087;28;20216;-62
2022/12/15 18:23:52;;;;;;;8.47;3.87;;;;;;;;;;10408790;28;20543;-62
2022/12/15 18:28:52;;;;;;;7.97;4.50;;;;;;;;;;10409736;28;20687;-62
2022/12/15 18:33:54;;;;;;;14.40;5.10;;;;;;;;;;10409397;28;20526;-62
2022/12/15 18:38:55;;;;;;;10.83;5.33;;;;;;;;;;10409112;28;20830;-62
2022/12/15 18:43:57;;;;;;;9.10;4.73;;;;;;;;;;10409709;28;20781;-63
2022/12/15 18:48:59;;;;;;;5.93;3.40;;;;;;;;;;10407861;28;20221;-61
2022/12/15 18:53:59;;;;;;;3.90;2.53;;;;;;;;;;10409568;28;20208;-63
2022/12/15 18:59:00;;;;;;;9.87;4.17;;;;;;;;;;10408641;28;20656;-61
2022/12/15 19:04:00;;;;;;;14.55;6.55;;;;;;;;;;10408786;28;20189;-61
2022/12/15 19:09:05;;;;;;;9.70;4.68;;;;;;;;;;10408104;28;20254;-62
2022/12/15 19:14:38;;;;;;;7.00;3.83;;;;;;;;;;10407730;28;20191;-60
2022/12/15 19:24:53;;;;;;;10.87;4.87;;;;;;;;;;10407514;28;20187;-62
2022/12/15 19:29:54;;;;;;;7.83;3.80;;;;;;;;;;10407425;28;20805;-61
2022/12/15 19:34:54;;;;;;;8.03;4.07;;;;;;;;;;10406239;28;20292;-62
2022/12/15 19:39:56;;;;;;;7.70;3.43;;;;;;;;;;10407686;28;20212;-62
2022/12/15 19:44:56;;;;;;;10.40;4.37;;;;;;;;;;10405963;28;20208;-62
2022/12/15 19:49:56;;;;;;;4.77;2.83;;;;;;;;;;10406323;28;20211;-61
2022/12/15 19:54:57;;;;;;;4.83;2.43;;;;;;;;;;10406490;28;20441;-60
2022/12/15 19:59:57;;;;;;;9.30;3.90;;;;;;;;;;10405690;28;20741;-60
2022/12/15 20:04:57;;;;;;;3.23;1.90;;;;;;;;;;10405974;28;20216;-61
2022/12/15 20:09:58;;;;;;;7.20;3.67;;;;;;;;;;10406422;28;20209;-61
2022/12/15 20:14:58;;;;;;;10.80;4.47;;;;;;;;;;10405042;28;20186;-61
2022/12/15 20:19:59;;;;;;;26.40;8.80;;;;;;;;;;10405556;28;20208;-60
2022/12/15 20:24:59;;;;;;;26.87;9.60;;;;;;;;;;10405675;28;20473;-61
2022/12/15 20:29:59;;;;;;;6.47;4.03;;;;;;;;;;10405346;28;20950;-60
2022/12/15 20:35:00;;;;;;;8.03;4.20;;;;;;;;;;10405453;28;20230;-59
2022/12/15 20:40:00;;;;;;;6.22;3.28;;;;;;;;;;10385128;28;20258;-61
2022/12/15 20:45:00;;;;;;;8.40;3.00;;;;;;;;;;10381057;28;20683;-58
2022/12/15 20:50:01;;;;;;;9.50;3.90;;;;;;;;;;10382213;28;20233;-61
2022/12/15 20:55:04;;;;;;;6.60;3.50;;;;;;;;;;10380405;28;20683;-61
2022/12/15 21:00:05;;;;;;;9.40;4.10;;;;;;;;;;10366538;28;20251;-61
2022/12/15 21:05:06;;;;;;;5.93;3.67;;;;;;;;;;10363180;28;21198;-62
2022/12/15 21:10:06;;;;;;;7.57;3.80;;;;;;;;;;10365122;28;20699;-60
2022/12/15 21:15:16;;;;;;;7.37;3.83;;;;;;;;;;10370646;28;20193;-61
2022/12/15 21:20:17;;;;;;;6.67;3.50;;;;;;;;;;10373189;28;20711;-62
2022/12/15 21:25:24;;;;;;;6.23;2.97;;;;;;;;;;10372397;28;20240;-62
2022/12/15 21:30:25;;;;;;;6.77;3.47;;;;;;;;;;10371849;28;20239;-62
2022/12/15 21:35:25;;;;;;;5.47;3.70;;;;;;;;;;10372062;28;20188;-61
2022/12/15 21:40:27;;;;;;;6.60;3.20;;;;;;;;;;10372684;28;20359;-61
2022/12/15 21:45:27;;;;;;;5.77;3.30;;;;;;;;;;10371551;28;20222;-62
2022/12/15 21:50:28;;;;;;;5.83;3.60;;;;;;;;;;10372420;28;20583;-61
2022/12/15 21:55:28;;;;;;;5.93;3.37;;;;;;;;;;10371560;28;20489;-62
2022/12/15 22:00:28;;;;;;;6.47;3.43;;;;;;;;;;10371802;28;20467;-62
2022/12/15 22:05:29;;;;;;;6.87;3.60;;;;;;;;;;10371075;28;20256;-62
2022/12/15 22:10:29;;;;;;;8.00;4.33;;;;;;;;;;10371824;28;20581;-61
2022/12/15 22:15:29;;;;;;;9.27;4.40;;;;;;;;;;10370463;28;20588;-61
2022/12/15 22:20:29;;;;;;;10.13;4.68;;;;;;;;;;10371348;28;20995;-60
2022/12/15 22:25:30;;;;;;;12.50;5.40;;;;;;;;;;10369695;28;20222;-60
2022/12/15 22:30:30;;;;;;;11.43;5.00;;;;;;;;;;10369886;28;20257;-62
2022/12/15 22:35:30;;;;;;;9.50;4.60;;;;;;;;;;10370539;28;20276;-62
2022/12/15 22:40:30;;;;;;;11.43;4.60;;;;;;;;;;10370021;28;20236;-62
2022/12/15 22:45:30;;;;;;;7.87;4.80;;;;;;;;;;10370548;28;20609;-60
2022/12/15 22:50:31;;;;;;;9.90;4.53;;;;;;;;;;10370059;28;20216;-60
2022/12/15 22:55:31;;;;;;;10.83;4.20;;;;;;;;;;10369691;28;20228;-63
2022/12/15 23:00:31;;;;;;;12.27;4.43;;;;;;;;;;10369736;28;20203;-61
2022/12/15 23:05:31;;;;;;;8.77;4.13;;;;;;;;;;10368154;28;20890;-62
2022/12/15 23:16:20;;;;;;;9.57;4.63;;;;;;;;;;10247724;28;20207;-62
2022/12/15 23:21:21;;;;;;;9.37;4.10;;;;;;;;;;10368657;28;20215;-62
2022/12/15 23:26:22;;;;;;;8.20;4.23;;;;;;;;;;10366868;28;20224;-62
2022/12/15 23:31:22;;;;;;;8.50;4.20;;;;;;;;;;10392209;22;20831;-64
2022/12/15 23:36:22;;;;;;;7.70;3.70;;;;;;;;;;10326614;28;20246;-63
2022/12/15 23:41:23;;;;;;;5.70;3.13;;;;;;;;;;10326276;28;20219;-63
2022/12/15 23:46:23;;;;;;;6.53;3.40;;;;;;;;;;10326670;28;20225;-62
2022/12/15 23:51:23;;;;;;;4.50;2.70;;;;;;;;;;10326390;28;20452;-61
2022/12/15 23:56:24;;;;;;;7.17;3.37;;;;;;;;;;10325706;28;20428;-61
